PWSweather.com
Personal Weather Stations
Station Observations
KB2SBX
Sugarloaf, Sugarloaf, PA 18249

SugarloafSugarloaf, PA 18249

Lat: 41.0126685, Lon: -76.1082041

Elevation: 1030

Station Type: WS-2080

http://sugarloafpaweather.webng.com/weather.shtml

High Low Average
Temperature 86.4°F30.2°F 62.2°F16.8°F 74.8°F23.8°F
Dew Point 67.8°F19.9°F 58.9°F14.9°F 62.3°F16.8°F
Winds 6.0 mph ENE9.7 mph ENE Calm Calm 1.2 mph 1.9 mph
Wind Gusts 13.6 mph21.9 mph -- 4.3 mph6.9 mph
Humidity 95% 1% 67%
Pressure 29.95 in1014.20 in 29.87 in1011.50 in -
Precipitation 0.14 in3.60 in - -
Hour Temp Dew Point Humidity Winds Wind Gusts Pressure Precip Precip Rate Daily Precip Total
12:00 AM 66.7°F19.3°C 60.4°F15.8°C 80% 0.7 mph N1.1 kmh N 1.6 mph2.6 kmh 29.95 in1014.2 mb 0.00 in0.0 mm 0.00 in0.0 mm 0.00 in0.0 mm
12:10 AM 66.4°F19.1°C 60.0°F15.6°C 80% 0.7 mph NW1.1 kmh NW 1.6 mph2.6 kmh 29.95 in1014.2 mb 0.00 in0.0 mm 0.00 in0.0 mm 0.00 in0.0 mm
12:20 AM 66.2°F19.0°C 60.2°F15.7°C 81% 0.7 mph NNW1.1 kmh NNW 2.2 mph3.5 kmh 29.94 in1013.9 mb 0.00 in0.0 mm 0.00 in0.0 mm 0.00 in0.0 mm
12:30 AM 66.2°F19.0°C 60.2°F15.7°C 81% Calm Calm 1.6 mph2.6 kmh 29.94 in1013.9 mb 0.00 in0.0 mm 0.00 in0.0 mm 0.00 in0.0 mm
12:40 AM 66.2°F19.0°C 60.2°F15.7°C 81% Calm Calm -- 29.94 in1013.9 mb 0.00 in0.0 mm 0.00 in0.0 mm 0.00 in0.0 mm
12:50 AM 66.2°F19.0°C 60.2°F15.7°C 81% Calm Calm -- 29.94 in1013.9 mb 0.00 in0.0 mm 0.00 in0.0 mm 0.00 in0.0 mm
01:00 AM 66.2°F19.0°C 60.2°F15.7°C 81% Calm Calm 2.2 mph3.5 kmh 29.95 in1014.2 mb 0.00 in0.0 mm 0.00 in0.0 mm 0.00 in0.0 mm
01:10 AM 66.4°F19.1°C 60.4°F15.8°C 81% Calm Calm 1.6 mph2.6 kmh 29.94 in1013.9 mb 0.00 in0.0 mm 0.00 in0.0 mm 0.00 in0.0 mm
01:20 AM 66.2°F19.0°C 60.2°F15.7°C 81% Calm Calm 1.6 mph2.6 kmh 29.94 in1013.9 mb 0.00 in0.0 mm 0.00 in0.0 mm 0.00 in0.0 mm
01:30 AM 66.0°F18.9°C 60.4°F15.8°C 82% 0.7 mph N1.1 kmh N 2.2 mph3.5 kmh 29.93 in1013.5 mb 0.00 in0.0 mm 0.00 in0.0 mm 0.00 in0.0 mm
01:40 AM 65.8°F18.8°C 60.2°F15.7°C 82% 0.7 mph N1.1 kmh N 1.6 mph2.6 kmh 29.93 in1013.5 mb 0.00 in0.0 mm 0.00 in0.0 mm 0.00 in0.0 mm
01:50 AM 65.5°F18.6°C 60.2°F15.7°C 83% 0.7 mph N1.1 kmh N 1.6 mph2.6 kmh 29.93 in1013.5 mb 0.00 in0.0 mm 0.00 in0.0 mm 0.00 in0.0 mm
02:00 AM 65.3°F18.5°C 60.0°F15.6°C 83% Calm Calm 1.6 mph2.6 kmh 29.93 in1013.5 mb 0.00 in0.0 mm 0.00 in0.0 mm 0.00 in0.0 mm
02:10 AM 65.1°F18.4°C 59.8°F15.4°C 83% 0.7 mph N1.1 kmh N 1.6 mph2.6 kmh 29.93 in1013.5 mb 0.00 in0.0 mm 0.00 in0.0 mm 0.00 in0.0 mm
02:20 AM 64.9°F18.3°C 59.7°F15.4°C 83% Calm Calm 1.6 mph2.6 kmh 29.93 in1013.5 mb 0.00 in0.0 mm 0.00 in0.0 mm 0.00 in0.0 mm
02:30 AM 64.8°F18.2°C 59.8°F15.4°C 84% Calm Calm 1.6 mph2.6 kmh 29.93 in1013.5 mb 0.00 in0.0 mm 0.00 in0.0 mm 0.00 in0.0 mm
02:40 AM 64.9°F18.3°C 60.0°F15.6°C 84% Calm Calm 1.6 mph2.6 kmh 29.92 in1013.2 mb 0.00 in0.0 mm 0.00 in0.0 mm 0.00 in0.0 mm
02:50 AM 64.9°F18.3°C 60.0°F15.6°C 84% Calm Calm -- 29.92 in1013.2 mb 0.00 in0.0 mm 0.00 in0.0 mm 0.00 in0.0 mm
03:00 AM 64.9°F18.3°C 60.0°F15.6°C 84% Calm Calm 1.6 mph2.6 kmh 29.92 in1013.2 mb 0.00 in0.0 mm 0.00 in0.0 mm 0.00 in0.0 mm
03:10 AM 64.8°F18.2°C 59.8°F15.4°C 84% Calm Calm 0.7 mph1.1 kmh 29.92 in1013.2 mb 0.00 in0.0 mm 0.00 in0.0 mm 0.00 in0.0 mm
03:20 AM 64.6°F18.1°C 59.7°F15.4°C 84% Calm Calm -- 29.92 in1013.2 mb 0.00 in0.0 mm 0.00 in0.0 mm 0.00 in0.0 mm
03:30 AM 64.2°F17.9°C 59.3°F15.2°C 84% Calm Calm -- 29.92 in1013.2 mb 0.00 in0.0 mm 0.00 in0.0 mm 0.00 in0.0 mm
03:40 AM 64.0°F17.8°C 59.1°F15.1°C 84% Calm Calm -- 29.92 in1013.2 mb 0.00 in0.0 mm 0.00 in0.0 mm 0.00 in0.0 mm
03:50 AM 63.7°F17.6°C 59.1°F15.1°C 85% Calm Calm -- 29.92 in1013.2 mb 0.00 in0.0 mm 0.00 in0.0 mm 0.00 in0.0 mm
04:00 AM 63.5°F17.5°C 58.9°F14.9°C 85% Calm Calm 1.6 mph2.6 kmh 29.92 in1013.2 mb 0.00 in0.0 mm 0.00 in0.0 mm 0.00 in0.0 mm
04:10 AM 63.1°F17.3°C 58.9°F14.9°C 86% Calm Calm 0.7 mph1.1 kmh 29.92 in1013.2 mb 0.00 in0.0 mm 0.00 in0.0 mm 0.00 in0.0 mm
04:20 AM 63.0°F17.2°C 59.0°F15.0°C 87% 0.7 mph N1.1 kmh N 1.6 mph2.6 kmh 29.92 in1013.2 mb 0.00 in0.0 mm 0.00 in0.0 mm 0.00 in0.0 mm
04:30 AM 63.0°F17.2°C 59.4°F15.2°C 88% Calm Calm 1.6 mph2.6 kmh 29.93 in1013.5 mb 0.00 in0.0 mm 0.00 in0.0 mm 0.00 in0.0 mm
04:40 AM 62.8°F17.1°C 59.2°F15.1°C 88% Calm Calm 1.6 mph2.6 kmh 29.92 in1013.2 mb 0.00 in0.0 mm 0.00 in0.0 mm 0.00 in0.0 mm
04:50 AM 62.6°F17.0°C 59.0°F15.0°C 88% 0.7 mph N1.1 kmh N 1.6 mph2.6 kmh 29.91 in1012.9 mb 0.00 in0.0 mm 0.00 in0.0 mm 0.00 in0.0 mm
05:00 AM 62.4°F16.9°C 59.2°F15.1°C 89% Calm Calm 1.6 mph2.6 kmh 29.91 in1012.9 mb 0.00 in0.0 mm 0.00 in0.0 mm 0.00 in0.0 mm
05:10 AM 62.4°F16.9°C 59.5°F15.3°C 90% Calm Calm 1.6 mph2.6 kmh 29.92 in1013.2 mb 0.00 in0.0 mm 0.00 in0.0 mm 0.00 in0.0 mm
05:20 AM 62.2°F16.8°C 59.3°F15.2°C 90% Calm Calm 1.6 mph2.6 kmh 29.92 in1013.2 mb 0.00 in0.0 mm 0.00 in0.0 mm 0.00 in0.0 mm
05:30 AM 62.2°F16.8°C 59.3°F15.2°C 90% Calm Calm 1.6 mph2.6 kmh 29.92 in1013.2 mb 0.00 in0.0 mm 0.00 in0.0 mm 0.00 in0.0 mm
05:40 AM 62.4°F16.9°C 59.5°F15.3°C 90% Calm Calm 1.6 mph2.6 kmh 29.92 in1013.2 mb 0.00 in0.0 mm 0.00 in0.0 mm 0.00 in0.0 mm
05:50 AM 62.4°F16.9°C 59.5°F15.3°C 90% Calm Calm 1.6 mph2.6 kmh 29.92 in1013.2 mb 0.00 in0.0 mm 0.00 in0.0 mm 0.00 in0.0 mm
06:00 AM 62.2°F16.8°C 59.6°F15.3°C 91% Calm Calm 0.7 mph1.1 kmh 29.92 in1013.2 mb 0.00 in0.0 mm 0.00 in0.0 mm 0.00 in0.0 mm
06:01 AM 62.2°F16.8°C 59.6°F15.3°C 91% Calm Calm -- 29.92 in1013.2 mb 0.00 in0.0 mm 0.00 in0.0 mm 0.00 in0.0 mm
06:02 AM 62.2°F16.8°C 59.6°F15.3°C 91% Calm Calm -- 29.92 in1013.2 mb 0.00 in0.0 mm 0.00 in0.0 mm 0.00 in0.0 mm
06:03 AM 62.2°F16.8°C 59.6°F15.3°C 91% Calm Calm -- 29.92 in1013.2 mb 0.00 in0.0 mm 0.00 in0.0 mm 0.00 in0.0 mm
06:04 AM 62.2°F16.8°C 59.6°F15.3°C 91% Calm Calm -- 29.92 in1013.2 mb 0.00 in0.0 mm 0.00 in0.0 mm 0.00 in0.0 mm
06:05 AM 62.2°F16.8°C 59.6°F15.3°C 91% Calm Calm -- 29.92 in1013.2 mb 0.00 in0.0 mm 0.00 in0.0 mm 0.00 in0.0 mm
06:06 AM 62.4°F16.9°C 59.8°F15.4°C 91% Calm Calm 0.7 mph1.1 kmh 29.92 in1013.2 mb 0.00 in0.0 mm 0.00 in0.0 mm 0.00 in0.0 mm
06:07 AM 62.6°F17.0°C 59.6°F15.3°C 90% Calm Calm 0.7 mph1.1 kmh 29.92 in1013.2 mb 0.00 in0.0 mm 0.00 in0.0 mm 0.00 in0.0 mm
06:08 AM 62.6°F17.0°C 59.6°F15.3°C 90% Calm Calm 0.7 mph1.1 kmh 29.92 in1013.2 mb 0.00 in0.0 mm 0.00 in0.0 mm 0.00 in0.0 mm
06:09 AM 62.6°F17.0°C 59.6°F15.3°C 90% Calm Calm 0.7 mph1.1 kmh 29.92 in1013.2 mb 0.00 in0.0 mm 0.00 in0.0 mm 0.00 in0.0 mm
06:10 AM 62.6°F17.0°C 59.6°F15.3°C 90% Calm Calm 0.7 mph1.1 kmh 29.92 in1013.2 mb 0.00 in0.0 mm 0.00 in0.0 mm 0.00 in0.0 mm
06:11 AM 62.6°F17.0°C 59.6°F15.3°C 90% Calm Calm 0.7 mph1.1 kmh 29.93 in1013.5 mb 0.00 in0.0 mm 0.00 in0.0 mm 0.00 in0.0 mm
06:20 AM 62.8°F17.1°C 59.8°F15.4°C 90% 0.7 mph N1.1 kmh N 1.6 mph2.6 kmh 29.93 in1013.5 mb 0.00 in0.0 mm 0.00 in0.0 mm 0.00 in0.0 mm
06:30 AM 62.8°F17.1°C 59.8°F15.4°C 90% Calm Calm 1.6 mph2.6 kmh 29.93 in1013.5 mb 0.00 in0.0 mm 0.00 in0.0 mm 0.00 in0.0 mm
06:40 AM 62.8°F17.1°C 59.8°F15.4°C 90% 0.7 mph N1.1 kmh N 1.6 mph2.6 kmh 29.93 in1013.5 mb 0.00 in0.0 mm 0.00 in0.0 mm 0.00 in0.0 mm
06:50 AM 63.0°F17.2°C 60.0°F15.6°C 90% Calm Calm 1.6 mph2.6 kmh 29.94 in1013.9 mb 0.00 in0.0 mm 0.00 in0.0 mm 0.00 in0.0 mm
07:00 AM 63.1°F17.3°C 60.2°F15.7°C 90% Calm Calm 1.6 mph2.6 kmh 29.94 in1013.9 mb 0.00 in0.0 mm 0.00 in0.0 mm 0.00 in0.0 mm
07:10 AM 63.5°F17.5°C 60.5°F15.8°C 90% Calm Calm 2.2 mph3.5 kmh 29.94 in1013.9 mb 0.00 in0.0 mm 0.00 in0.0 mm 0.00 in0.0 mm
07:20 AM 64.4°F18.0°C 62.0°F16.7°C 92% Calm Calm 1.6 mph2.6 kmh 29.94 in1013.9 mb 0.00 in0.0 mm 0.00 in0.0 mm 0.00 in0.0 mm
07:30 AM 64.6°F18.1°C 62.2°F16.8°C 92% Calm Calm 0.7 mph1.1 kmh 29.95 in1014.2 mb 0.00 in0.0 mm 0.00 in0.0 mm 0.00 in0.0 mm
07:40 AM 65.3°F18.5°C 62.6°F17.0°C 91% Calm Calm 0.7 mph1.1 kmh 29.94 in1013.9 mb 0.00 in0.0 mm 0.00 in0.0 mm 0.00 in0.0 mm
07:50 AM 66.4°F19.1°C 63.4°F17.4°C 90% Calm Calm 1.6 mph2.6 kmh 29.94 in1013.9 mb 0.00 in0.0 mm 0.00 in0.0 mm 0.00 in0.0 mm
08:00 AM 67.8°F19.9°C 64.5°F18.1°C 89% Calm Calm 1.6 mph2.6 kmh 29.94 in1013.9 mb 0.00 in0.0 mm 0.00 in0.0 mm 0.00 in0.0 mm
08:10 AM 69.1°F20.6°C 64.7°F18.2°C 86% Calm Calm 0.7 mph1.1 kmh 29.93 in1013.5 mb 0.00 in0.0 mm 0.00 in0.0 mm 0.00 in0.0 mm
08:20 AM 70.3°F21.3°C 64.6°F18.1°C 82% Calm Calm 1.6 mph2.6 kmh 29.93 in1013.5 mb 0.00 in0.0 mm 0.00 in0.0 mm 0.00 in0.0 mm
08:30 AM 71.6°F22.0°C 64.4°F18.0°C 78% Calm Calm 2.2 mph3.5 kmh 29.93 in1013.5 mb 0.00 in0.0 mm 0.00 in0.0 mm 0.00 in0.0 mm
08:40 AM 73.0°F22.8°C 64.3°F17.9°C 74% 0.7 mph S1.1 kmh S 2.2 mph3.5 kmh 29.93 in1013.5 mb 0.00 in0.0 mm 0.00 in0.0 mm 0.00 in0.0 mm
08:50 AM 73.9°F23.3°C 64.8°F18.2°C 73% 1.6 mph SSE2.6 kmh SSE 3.1 mph5.0 kmh 29.92 in1013.2 mb 0.00 in0.0 mm 0.00 in0.0 mm 0.00 in0.0 mm
09:00 AM 75.0°F23.9°C 65.0°F18.3°C 71% 0.7 mph SSE1.1 kmh SSE 3.8 mph6.1 kmh 29.92 in1013.2 mb 0.00 in0.0 mm 0.00 in0.0 mm 0.00 in0.0 mm
09:10 AM 75.9°F24.4°C 64.6°F18.1°C 68% 0.7 mph WSW1.1 kmh WSW 3.8 mph6.1 kmh 29.91 in1012.9 mb 0.00 in0.0 mm 0.00 in0.0 mm 0.00 in0.0 mm
09:20 AM 77.0°F25.0°C 64.4°F18.0°C 65% 1.6 mph SSW2.6 kmh SSW 3.8 mph6.1 kmh 29.92 in1013.2 mb 0.00 in0.0 mm 0.00 in0.0 mm 0.00 in0.0 mm
09:30 AM 77.9°F25.5°C 64.8°F18.2°C 64% 1.6 mph SSE2.6 kmh SSE 3.8 mph6.1 kmh 29.92 in1013.2 mb 0.00 in0.0 mm 0.00 in0.0 mm 0.00 in0.0 mm
09:40 AM 78.8°F26.0°C 64.3°F17.9°C 61% 0.7 mph SSE1.1 kmh SSE 4.5 mph7.2 kmh 29.92 in1013.2 mb 0.00 in0.0 mm 0.00 in0.0 mm 0.00 in0.0 mm
09:50 AM 79.3°F26.3°C 63.8°F17.7°C 59% 0.7 mph SE1.1 kmh SE 6.0 mph9.7 kmh 29.92 in1013.2 mb 0.00 in0.0 mm 0.00 in0.0 mm 0.00 in0.0 mm
10:00 AM 79.7°F26.5°C 63.7°F17.6°C 58% 1.6 mph S2.6 kmh S 12.1 mph19.5 kmh 29.91 in1012.9 mb 0.00 in0.0 mm 0.00 in0.0 mm 0.00 in0.0 mm
10:10 AM 80.4°F26.9°C 64.8°F18.2°C 59% 4.5 mph S7.2 kmh S 7.6 mph12.2 kmh 29.91 in1012.9 mb 0.00 in0.0 mm 0.00 in0.0 mm 0.00 in0.0 mm
10:20 AM 80.8°F27.1°C 63.2°F17.3°C 55% 2.2 mph SE3.5 kmh SE 7.6 mph12.2 kmh 29.91 in1012.9 mb 0.00 in0.0 mm 0.00 in0.0 mm 0.00 in0.0 mm
10:30 AM 81.1°F27.3°C 64.0°F17.8°C 56% 1.6 mph SE2.6 kmh SE 6.9 mph11.1 kmh 29.91 in1012.9 mb 0.00 in0.0 mm 0.00 in0.0 mm 0.00 in0.0 mm
10:40 AM 81.3°F27.4°C 62.6°F17.0°C 53% 0.7 mph SW1.1 kmh SW 10.7 mph17.2 kmh 29.91 in1012.9 mb 0.00 in0.0 mm 0.00 in0.0 mm 0.00 in0.0 mm
10:50 AM 82.0°F27.8°C 63.3°F17.4°C 53% 1.6 mph E2.6 kmh E 6.0 mph9.7 kmh 29.91 in1012.9 mb 0.00 in0.0 mm 0.00 in0.0 mm 0.00 in0.0 mm
11:00 AM 82.4°F28.0°C 63.6°F17.6°C 53% 2.2 mph SSE3.5 kmh SSE 6.9 mph11.1 kmh 29.91 in1012.9 mb 0.00 in0.0 mm 0.00 in0.0 mm 0.00 in0.0 mm
11:10 AM 81.9°F27.7°C 63.6°F17.6°C 54% 2.2 mph SE3.5 kmh SE 7.6 mph12.2 kmh 29.91 in1012.9 mb 0.00 in0.0 mm 0.00 in0.0 mm 0.00 in0.0 mm
11:20 AM 82.8°F28.2°C 63.4°F17.4°C 52% 3.8 mph E6.1 kmh E 7.6 mph12.2 kmh 29.90 in1012.5 mb 0.00 in0.0 mm 0.00 in0.0 mm 0.00 in0.0 mm
11:30 AM 83.1°F28.4°C 63.7°F17.6°C 52% 3.1 mph SE5.0 kmh SE 6.9 mph11.1 kmh 29.90 in1012.5 mb 0.00 in0.0 mm 0.00 in0.0 mm 0.00 in0.0 mm
11:40 AM 83.3°F28.5°C 63.9°F17.7°C 52% 3.1 mph SE5.0 kmh SE 9.2 mph14.8 kmh 29.90 in1012.5 mb 0.00 in0.0 mm 0.00 in0.0 mm 0.00 in0.0 mm
11:50 AM 84.0°F28.9°C 64.6°F18.1°C 52% 4.5 mph ESE7.2 kmh ESE 7.6 mph12.2 kmh 29.89 in1012.2 mb 0.00 in0.0 mm 0.00 in0.0 mm 0.00 in0.0 mm
12:00 PM 83.8°F28.8°C 62.1°F16.7°C 48% 3.8 mph SE6.1 kmh SE 8.3 mph13.4 kmh 29.89 in1012.2 mb 0.00 in0.0 mm 0.00 in0.0 mm 0.00 in0.0 mm
12:10 PM 84.0°F28.9°C 62.9°F17.2°C 49% 2.2 mph SE3.5 kmh SE 7.6 mph12.2 kmh 29.89 in1012.2 mb 0.00 in0.0 mm 0.00 in0.0 mm 0.00 in0.0 mm
12:20 PM 84.7°F29.3°C 63.5°F17.5°C 49% 3.1 mph SE5.0 kmh SE 6.0 mph9.7 kmh 29.89 in1012.2 mb 0.00 in0.0 mm 0.00 in0.0 mm 0.00 in0.0 mm
12:30 PM 85.1°F29.5°C 62.7°F17.1°C 47% 3.8 mph ESE6.1 kmh ESE 8.3 mph13.4 kmh 29.89 in1012.2 mb 0.00 in0.0 mm 0.00 in0.0 mm 0.00 in0.0 mm
12:40 PM 85.3°F29.6°C 62.2°F16.8°C 46% 0.7 mph SE1.1 kmh SE 13.0 mph20.9 kmh 29.89 in1012.2 mb 0.00 in0.0 mm 0.00 in0.0 mm 0.00 in0.0 mm
12:50 PM 85.8°F29.9°C 63.9°F17.7°C 48% 3.8 mph SE6.1 kmh SE 9.2 mph14.8 kmh 29.88 in1011.9 mb 0.00 in0.0 mm 0.00 in0.0 mm 0.00 in0.0 mm
01:00 PM 86.4°F30.2°C 62.6°F17.0°C 45% 2.2 mph NW3.5 kmh NW 6.0 mph9.7 kmh 29.88 in1011.9 mb 0.00 in0.0 mm 0.00 in0.0 mm 0.00 in0.0 mm
01:10 PM 86.2°F30.1°C 61.8°F16.6°C 44% 3.1 mph S5.0 kmh S 9.8 mph15.8 kmh 29.88 in1011.9 mb 0.00 in0.0 mm 0.00 in0.0 mm 0.00 in0.0 mm
01:20 PM 85.5°F29.7°C 63.6°F17.6°C 48% 2.2 mph SE3.5 kmh SE 5.4 mph8.7 kmh 29.88 in1011.9 mb 0.00 in0.0 mm 0.00 in0.0 mm 0.00 in0.0 mm
01:30 PM 85.1°F29.5°C 63.3°F17.4°C 48% 0.7 mph ESE1.1 kmh ESE 9.2 mph14.8 kmh 29.88 in1011.9 mb 0.00 in0.0 mm 0.00 in0.0 mm 0.00 in0.0 mm
01:40 PM 84.6°F29.2°C 61.6°F16.4°C 46% 0.7 mph ESE1.1 kmh ESE 8.3 mph13.4 kmh 29.88 in1011.9 mb 0.00 in0.0 mm 0.00 in0.0 mm 0.00 in0.0 mm
01:50 PM 84.2°F29.0°C 61.8°F16.6°C 47% 0.7 mph SE1.1 kmh SE 7.6 mph12.2 kmh 29.88 in1011.9 mb 0.00 in0.0 mm 0.00 in0.0 mm 0.00 in0.0 mm
02:00 PM 83.1°F28.4°C 62.6°F17.0°C 50% 0.7 mph SE1.1 kmh SE 6.0 mph9.7 kmh 29.88 in1011.9 mb 0.00 in0.0 mm 0.00 in0.0 mm 0.00 in0.0 mm
02:10 PM 83.5°F28.6°C 62.4°F16.9°C 49% 1.6 mph SE2.6 kmh SE 7.6 mph12.2 kmh 29.88 in1011.9 mb 0.00 in0.0 mm 0.00 in0.0 mm 0.00 in0.0 mm
02:20 PM 84.9°F29.4°C 61.3°F16.3°C 45% 3.8 mph S6.1 kmh S 9.8 mph15.8 kmh 29.89 in1012.2 mb 0.00 in0.0 mm 0.00 in0.0 mm 0.00 in0.0 mm
02:30 PM 84.6°F29.2°C 60.9°F16.1°C 45% 1.6 mph S2.6 kmh S 6.0 mph9.7 kmh 29.89 in1012.2 mb 0.00 in0.0 mm 0.00 in0.0 mm 0.00 in0.0 mm
02:40 PM 84.4°F29.1°C 62.0°F16.7°C 47% 2.2 mph ESE3.5 kmh ESE 7.6 mph12.2 kmh 29.89 in1012.2 mb 0.00 in0.0 mm 0.00 in0.0 mm 0.00 in0.0 mm
02:50 PM 83.5°F28.6°C 60.6°F15.9°C 46% 0.7 mph SE1.1 kmh SE 8.3 mph13.4 kmh 29.89 in1012.2 mb 0.00 in0.0 mm 0.00 in0.0 mm 0.00 in0.0 mm
03:00 PM 83.1°F28.4°C 61.4°F16.3°C 48% 1.6 mph W2.6 kmh W 10.7 mph17.2 kmh 29.89 in1012.2 mb 0.00 in0.0 mm 0.00 in0.0 mm 0.00 in0.0 mm
03:10 PM 83.5°F28.6°C 61.2°F16.2°C 47% 1.6 mph WNW2.6 kmh WNW 8.3 mph13.4 kmh 29.89 in1012.2 mb 0.00 in0.0 mm 0.00 in0.0 mm 0.00 in0.0 mm
03:20 PM 84.2°F29.0°C 61.2°F16.2°C 46% 2.2 mph S3.5 kmh S 13.0 mph20.9 kmh 29.88 in1011.9 mb 0.00 in0.0 mm 0.00 in0.0 mm 0.00 in0.0 mm
03:30 PM 84.7°F29.3°C 61.1°F16.2°C 45% 6.0 mph NW9.7 kmh NW 9.2 mph14.8 kmh 29.88 in1011.9 mb 0.00 in0.0 mm 0.00 in0.0 mm 0.00 in0.0 mm
03:40 PM 84.7°F29.3°C 60.5°F15.8°C 44% 3.1 mph N5.0 kmh N 13.6 mph21.9 kmh 29.87 in1011.5 mb 0.00 in0.0 mm 0.00 in0.0 mm 0.00 in0.0 mm
03:50 PM 85.1°F29.5°C 62.0°F16.7°C 46% 3.1 mph SW5.0 kmh SW 8.3 mph13.4 kmh 29.88 in1011.9 mb 0.00 in0.0 mm 0.00 in0.0 mm 0.00 in0.0 mm
04:00 PM 85.1°F29.5°C 62.0°F16.7°C 46% 3.1 mph ENE5.0 kmh ENE 7.6 mph12.2 kmh 29.88 in1011.9 mb 0.00 in0.0 mm 0.00 in0.0 mm 0.00 in0.0 mm
04:10 PM 85.3°F29.6°C 62.2°F16.8°C 46% 3.8 mph SSE6.1 kmh SSE 8.3 mph13.4 kmh 29.88 in1011.9 mb 0.00 in0.0 mm 0.00 in0.0 mm 0.00 in0.0 mm
04:20 PM 84.7°F29.3°C 61.7°F16.5°C 46% 3.8 mph NW6.1 kmh NW 7.6 mph12.2 kmh 29.87 in1011.5 mb 0.00 in0.0 mm 0.00 in0.0 mm 0.00 in0.0 mm
04:30 PM 83.3°F28.5°C 61.0°F16.1°C 47% 1.6 mph SW2.6 kmh SW 9.2 mph14.8 kmh 29.87 in1011.5 mb 0.00 in0.0 mm 0.00 in0.0 mm 0.00 in0.0 mm
04:40 PM 83.7°F28.7°C 61.9°F16.6°C 48% 6.0 mph ENE9.7 kmh ENE 11.4 mph18.3 kmh 29.87 in1011.5 mb 0.00 in0.0 mm 0.00 in0.0 mm 0.00 in0.0 mm
04:50 PM 83.7°F28.7°C 60.7°F15.9°C 46% 3.8 mph E6.1 kmh E 11.4 mph18.3 kmh 29.88 in1011.9 mb 0.00 in0.0 mm 0.00 in0.0 mm 0.00 in0.0 mm
05:00 PM 83.1°F28.4°C 61.4°F16.3°C 48% 1.6 mph E2.6 kmh E 9.8 mph15.8 kmh 29.88 in1011.9 mb 0.00 in0.0 mm 0.00 in0.0 mm 0.00 in0.0 mm
05:10 PM 83.1°F28.4°C 62.6°F17.0°C 1% 1.6 mph SSE2.6 kmh SSE 10.7 mph17.2 kmh 29.87 in1011.5 mb 0.00 in0.0 mm 0.00 in0.0 mm 0.00 in0.0 mm
05:15 PM 83.1°F28.4°C 62.0°F16.7°C 49% 0.7 mph W1.1 kmh W 2.2 mph3.5 kmh 29.88 in1011.9 mb 0.00 in0.0 mm 0.00 in0.0 mm 0.00 in0.0 mm
05:16 PM 83.1°F28.4°C 62.0°F16.7°C 49% 1.6 mph WSW2.6 kmh WSW 3.8 mph6.1 kmh 29.88 in1011.9 mb 0.00 in0.0 mm 0.00 in0.0 mm 0.00 in0.0 mm
05:17 PM 83.1°F28.4°C 62.0°F16.7°C 49% 4.5 mph S7.2 kmh S 7.6 mph12.2 kmh 29.88 in1011.9 mb 0.00 in0.0 mm 0.00 in0.0 mm 0.00 in0.0 mm
05:18 PM 83.1°F28.4°C 62.6°F17.0°C 50% 3.8 mph SSW6.1 kmh SSW 7.6 mph12.2 kmh 29.88 in1011.9 mb 0.00 in0.0 mm 0.00 in0.0 mm 0.00 in0.0 mm
05:19 PM 83.1°F28.4°C 62.6°F17.0°C 50% 1.6 mph SSW2.6 kmh SSW 7.6 mph12.2 kmh 29.88 in1011.9 mb 0.00 in0.0 mm 0.00 in0.0 mm 0.00 in0.0 mm
05:20 PM 83.1°F28.4°C 62.6°F17.0°C 50% 2.2 mph S3.5 kmh S 7.6 mph12.2 kmh 29.88 in1011.9 mb 0.00 in0.0 mm 0.00 in0.0 mm 0.00 in0.0 mm
05:21 PM 82.9°F28.3°C 62.4°F16.9°C 50% 3.8 mph S6.1 kmh S 7.6 mph12.2 kmh 29.87 in1011.5 mb 0.00 in0.0 mm 0.00 in0.0 mm 0.00 in0.0 mm
05:22 PM 82.9°F28.3°C 62.4°F16.9°C 50% 1.6 mph S2.6 kmh S 7.6 mph12.2 kmh 29.88 in1011.9 mb 0.00 in0.0 mm 0.00 in0.0 mm 0.00 in0.0 mm
05:23 PM 82.9°F28.3°C 61.8°F16.6°C 49% 3.8 mph S6.1 kmh S 7.6 mph12.2 kmh 29.88 in1011.9 mb 0.00 in0.0 mm 0.00 in0.0 mm 0.00 in0.0 mm
05:24 PM 82.9°F28.3°C 62.4°F16.9°C 50% 3.1 mph S5.0 kmh S 7.6 mph12.2 kmh 29.88 in1011.9 mb 0.00 in0.0 mm 0.00 in0.0 mm 0.00 in0.0 mm
05:25 PM 82.9°F28.3°C 61.8°F16.6°C 49% 0.7 mph S1.1 kmh S 7.6 mph12.2 kmh 29.88 in1011.9 mb 0.00 in0.0 mm 0.00 in0.0 mm 0.00 in0.0 mm
05:26 PM 82.9°F28.3°C 62.4°F16.9°C 50% 1.6 mph SSE2.6 kmh SSE 7.6 mph12.2 kmh 29.88 in1011.9 mb 0.00 in0.0 mm 0.00 in0.0 mm 0.00 in0.0 mm
05:27 PM 82.8°F28.2°C 62.8°F17.1°C 51% 1.6 mph S2.6 kmh S 7.6 mph12.2 kmh 29.87 in1011.5 mb 0.00 in0.0 mm 0.00 in0.0 mm 0.00 in0.0 mm
05:30 PM 82.8°F28.2°C 62.8°F17.1°C 51% 4.5 mph E7.2 kmh E 7.6 mph12.2 kmh 29.88 in1011.9 mb 0.00 in0.0 mm 0.00 in0.0 mm 0.00 in0.0 mm
05:31 PM 82.8°F28.2°C 62.2°F16.8°C 50% 1.6 mph SE2.6 kmh SE 7.6 mph12.2 kmh 29.88 in1011.9 mb 0.00 in0.0 mm 0.00 in0.0 mm 0.00 in0.0 mm
05:32 PM 82.8°F28.2°C 62.2°F16.8°C 50% 1.6 mph SE2.6 kmh SE 7.6 mph12.2 kmh 29.87 in1011.5 mb 0.00 in0.0 mm 0.00 in0.0 mm 0.00 in0.0 mm
05:33 PM 82.8°F28.2°C 62.2°F16.8°C 50% 4.5 mph SE7.2 kmh SE 8.3 mph13.4 kmh 29.87 in1011.5 mb 0.00 in0.0 mm 0.00 in0.0 mm 0.00 in0.0 mm
05:34 PM 82.8°F28.2°C 62.2°F16.8°C 50% 1.6 mph ESE2.6 kmh ESE 8.3 mph13.4 kmh 29.87 in1011.5 mb 0.00 in0.0 mm 0.00 in0.0 mm 0.00 in0.0 mm
05:35 PM 82.8°F28.2°C 62.8°F17.1°C 51% 3.1 mph ESE5.0 kmh ESE 8.3 mph13.4 kmh 29.87 in1011.5 mb 0.00 in0.0 mm 0.00 in0.0 mm 0.00 in0.0 mm
05:36 PM 82.8°F28.2°C 62.2°F16.8°C 50% 1.6 mph ESE2.6 kmh ESE 8.3 mph13.4 kmh 29.88 in1011.9 mb 0.00 in0.0 mm 0.00 in0.0 mm 0.00 in0.0 mm
05:37 PM 82.6°F28.1°C 62.1°F16.7°C 50% 1.6 mph E2.6 kmh E 8.3 mph13.4 kmh 29.87 in1011.5 mb 0.00 in0.0 mm 0.00 in0.0 mm 0.00 in0.0 mm
05:38 PM 82.6°F28.1°C 62.1°F16.7°C 50% 2.2 mph ESE3.5 kmh ESE 8.3 mph13.4 kmh 29.88 in1011.9 mb 0.00 in0.0 mm 0.00 in0.0 mm 0.00 in0.0 mm
05:39 PM 82.6°F28.1°C 62.1°F16.7°C 50% 1.6 mph ESE2.6 kmh ESE 8.3 mph13.4 kmh 29.87 in1011.5 mb 0.00 in0.0 mm 0.00 in0.0 mm 0.00 in0.0 mm
05:40 PM 82.6°F28.1°C 62.7°F17.1°C 51% 1.6 mph SE2.6 kmh SE 8.3 mph13.4 kmh 29.87 in1011.5 mb 0.00 in0.0 mm 0.00 in0.0 mm 0.00 in0.0 mm
05:41 PM 82.6°F28.1°C 62.6°F17.0°C 51% 3.1 mph S5.0 kmh S 8.3 mph13.4 kmh 29.87 in1011.5 mb 0.00 in0.0 mm 0.00 in0.0 mm 0.00 in0.0 mm
05:42 PM 82.6°F28.1°C 62.1°F16.7°C 50% 2.2 mph WSW3.5 kmh WSW 8.3 mph13.4 kmh 29.87 in1011.5 mb 0.00 in0.0 mm 0.00 in0.0 mm 0.00 in0.0 mm
05:43 PM 82.6°F28.1°C 62.6°F17.0°C 51% 1.6 mph WSW2.6 kmh WSW 5.4 mph8.7 kmh 29.88 in1011.9 mb 0.00 in0.0 mm 0.00 in0.0 mm 0.00 in0.0 mm
05:44 PM 82.6°F28.1°C 62.6°F17.0°C 51% 0.7 mph WSW1.1 kmh WSW 5.4 mph8.7 kmh 29.88 in1011.9 mb 0.00 in0.0 mm 0.00 in0.0 mm 0.00 in0.0 mm
05:50 PM 82.8°F28.2°C 63.9°F17.7°C 53% 2.2 mph SE3.5 kmh SE 9.2 mph14.8 kmh 29.88 in1011.9 mb 0.00 in0.0 mm 0.00 in0.0 mm 0.00 in0.0 mm
06:00 PM 82.6°F28.1°C 62.7°F17.1°C 51% 2.2 mph E3.5 kmh E 8.3 mph13.4 kmh 29.87 in1011.5 mb 0.00 in0.0 mm 0.00 in0.0 mm 0.00 in0.0 mm
06:10 PM 82.4°F28.0°C 62.5°F16.9°C 51% 2.2 mph E3.5 kmh E 4.5 mph7.2 kmh 29.87 in1011.5 mb 0.00 in0.0 mm 0.00 in0.0 mm 0.00 in0.0 mm
06:20 PM 82.0°F27.8°C 62.2°F16.8°C 51% 2.2 mph E3.5 kmh E 9.8 mph15.8 kmh 29.87 in1011.5 mb 0.00 in0.0 mm 0.00 in0.0 mm 0.00 in0.0 mm
06:30 PM 81.7°F27.6°C 62.4°F16.9°C 52% 0.7 mph NE1.1 kmh NE 5.4 mph8.7 kmh 29.88 in1011.9 mb 0.00 in0.0 mm 0.00 in0.0 mm 0.00 in0.0 mm
06:40 PM 81.3°F27.4°C 62.6°F17.0°C 53% Calm Calm 4.5 mph7.2 kmh 29.88 in1011.9 mb 0.00 in0.0 mm 0.00 in0.0 mm 0.00 in0.0 mm
06:50 PM 80.8°F27.1°C 63.2°F17.3°C 55% Calm Calm 3.1 mph5.0 kmh 29.88 in1011.9 mb 0.00 in0.0 mm 0.00 in0.0 mm 0.00 in0.0 mm
07:00 PM 80.4°F26.9°C 64.3°F17.9°C 58% 0.7 mph SE1.1 kmh SE 2.2 mph3.5 kmh 29.88 in1011.9 mb 0.00 in0.0 mm 0.00 in0.0 mm 0.00 in0.0 mm
07:10 PM 80.1°F26.7°C 64.0°F17.8°C 58% Calm Calm 2.2 mph3.5 kmh 29.88 in1011.9 mb 0.00 in0.0 mm 0.00 in0.0 mm 0.00 in0.0 mm
07:20 PM 79.7°F26.5°C 64.1°F17.8°C 59% Calm Calm 3.1 mph5.0 kmh 29.88 in1011.9 mb 0.00 in0.0 mm 0.00 in0.0 mm 0.00 in0.0 mm
07:30 PM 79.2°F26.2°C 64.1°F17.8°C 60% Calm Calm -- 29.89 in1012.2 mb 0.00 in0.0 mm 0.00 in0.0 mm 0.00 in0.0 mm
07:40 PM 78.8°F26.0°C 64.3°F17.9°C 61% Calm Calm 2.2 mph3.5 kmh 29.88 in1011.9 mb 0.00 in0.0 mm 0.00 in0.0 mm 0.00 in0.0 mm
07:50 PM 78.3°F25.7°C 64.7°F18.2°C 63% Calm Calm 0.7 mph1.1 kmh 29.89 in1012.2 mb 0.00 in0.0 mm 0.00 in0.0 mm 0.00 in0.0 mm
08:00 PM 77.4°F25.2°C 64.7°F18.2°C 65% Calm Calm 0.7 mph1.1 kmh 29.89 in1012.2 mb 0.00 in0.0 mm 0.00 in0.0 mm 0.00 in0.0 mm
08:10 PM 76.8°F24.9°C 65.5°F18.6°C 68% Calm Calm -- 29.89 in1012.2 mb 0.00 in0.0 mm 0.00 in0.0 mm 0.00 in0.0 mm
08:20 PM 76.1°F24.5°C 65.6°F18.7°C 70% Calm Calm 1.6 mph2.6 kmh 29.89 in1012.2 mb 0.00 in0.0 mm 0.00 in0.0 mm 0.00 in0.0 mm
08:30 PM 75.4°F24.1°C 65.8°F18.8°C 72% 0.7 mph NNW1.1 kmh NNW 1.6 mph2.6 kmh 29.89 in1012.2 mb 0.00 in0.0 mm 0.00 in0.0 mm 0.00 in0.0 mm
08:40 PM 74.5°F23.6°C 65.3°F18.5°C 73% Calm Calm 1.6 mph2.6 kmh 29.90 in1012.5 mb 0.00 in0.0 mm 0.00 in0.0 mm 0.00 in0.0 mm
08:50 PM 73.9°F23.3°C 65.2°F18.4°C 74% Calm Calm -- 29.91 in1012.9 mb 0.00 in0.0 mm 0.00 in0.0 mm 0.00 in0.0 mm
09:00 PM 73.8°F23.2°C 65.4°F18.6°C 75% Calm Calm -- 29.90 in1012.5 mb 0.00 in0.0 mm 0.00 in0.0 mm 0.00 in0.0 mm
09:10 PM 73.4°F23.0°C 65.4°F18.6°C 76% Calm Calm -- 29.90 in1012.5 mb 0.00 in0.0 mm 0.00 in0.0 mm 0.00 in0.0 mm
09:20 PM 73.2°F22.9°C 65.2°F18.4°C 76% Calm Calm -- 29.91 in1012.9 mb 0.00 in0.0 mm 0.00 in0.0 mm 0.00 in0.0 mm
09:30 PM 73.0°F22.8°C 65.1°F18.4°C 76% Calm Calm -- 29.91 in1012.9 mb 0.00 in0.0 mm 0.00 in0.0 mm 0.00 in0.0 mm
09:40 PM 72.9°F22.7°C 64.9°F18.3°C 76% Calm Calm -- 29.91 in1012.9 mb 0.00 in0.0 mm 0.00 in0.0 mm 0.00 in0.0 mm
09:50 PM 72.9°F22.7°C 65.3°F18.5°C 77% Calm Calm -- 29.91 in1012.9 mb 0.00 in0.0 mm 0.00 in0.0 mm 0.00 in0.0 mm
10:00 PM 72.7°F22.6°C 65.1°F18.4°C 77% Calm Calm -- 29.91 in1012.9 mb 0.00 in0.0 mm 0.00 in0.0 mm 0.00 in0.0 mm
10:10 PM 72.7°F22.6°C 65.5°F18.6°C 78% 0.7 mph N1.1 kmh N 1.6 mph2.6 kmh 29.91 in1012.9 mb 0.00 in0.0 mm 0.00 in0.0 mm 0.00 in0.0 mm
10:20 PM 72.7°F22.6°C 65.5°F18.6°C 78% Calm Calm 1.6 mph2.6 kmh 29.91 in1012.9 mb 0.00 in0.0 mm 0.00 in0.0 mm 0.00 in0.0 mm
10:30 PM 72.9°F22.7°C 65.6°F18.7°C 78% 0.7 mph WSW1.1 kmh WSW 2.2 mph3.5 kmh 29.92 in1013.2 mb 0.00 in0.0 mm 0.00 in0.0 mm 0.00 in0.0 mm
10:31 PM 72.9°F22.7°C 65.6°F18.7°C 78% 0.7 mph W1.1 kmh W 2.2 mph3.5 kmh 29.92 in1013.2 mb 0.02 in0.5 mm 1.20 in30.5 mm 0.01 in0.3 mm
10:40 PM 71.8°F22.1°C 66.0°F18.9°C 82% 0.7 mph N1.1 kmh N 2.2 mph3.5 kmh 29.91 in1012.9 mb 0.02 in0.5 mm 0.00 in0.0 mm 0.02 in0.5 mm
10:50 PM 70.9°F21.6°C 66.9°F19.4°C 87% Calm Calm 2.2 mph3.5 kmh 29.91 in1012.9 mb 0.02 in0.5 mm 0.00 in0.0 mm 0.02 in0.5 mm
11:00 PM 70.2°F21.2°C 66.8°F19.3°C 89% Calm Calm 1.6 mph2.6 kmh 29.91 in1012.9 mb 0.02 in0.5 mm 0.00 in0.0 mm 0.02 in0.5 mm
11:10 PM 70.0°F21.1°C 67.3°F19.6°C 91% Calm Calm 1.6 mph2.6 kmh 29.91 in1012.9 mb 0.02 in0.5 mm 0.00 in0.0 mm 0.02 in0.5 mm
11:20 PM 69.6°F20.9°C 67.5°F19.7°C 93% Calm Calm 2.2 mph3.5 kmh 29.91 in1012.9 mb 0.02 in0.5 mm 0.00 in0.0 mm 0.02 in0.5 mm
11:30 PM 69.6°F20.9°C 67.5°F19.7°C 93% 0.7 mph N1.1 kmh N 1.6 mph2.6 kmh 29.91 in1012.9 mb 0.02 in0.5 mm 0.00 in0.0 mm 0.02 in0.5 mm
11:40 PM 69.4°F20.8°C 67.7°F19.8°C 94% Calm Calm 1.6 mph2.6 kmh 29.91 in1012.9 mb 0.00 in0.0 mm 0.00 in0.0 mm 0.02 in0.5 mm
11:50 PM 69.3°F20.7°C 67.8°F19.9°C 95% Calm Calm 0.7 mph1.1 kmh 29.92 in1013.2 mb 0.00 in0.0 mm 0.00 in0.0 mm 0.02 in0.5 mm